sensor_id;sensor_type;location;lat;lon;timestamp;P1;durP1;ratioP1;P2;durP2;ratioP2
38113;SDS011;23926;53.222;6.354;2023-09-07T00:01:29;7.63;;;3.92;;
38113;SDS011;23926;53.222;6.354;2023-09-07T00:03:55;5.30;;;3.75;;
38113;SDS011;23926;53.222;6.354;2023-09-07T00:06:21;4.10;;;3.80;;
38113;SDS011;23926;53.222;6.354;2023-09-07T00:08:46;4.93;;;4.10;;
38113;SDS011;23926;53.222;6.354;2023-09-07T00:11:12;4.18;;;3.78;;
38113;SDS011;23926;53.222;6.354;2023-09-07T00:13:37;5.70;;;4.50;;
38113;SDS011;23926;53.222;6.354;2023-09-07T00:16:03;4.13;;;3.75;;
38113;SDS011;23926;53.222;6.354;2023-09-07T00:18:32;4.32;;;4.03;;
38113;SDS011;23926;53.222;6.354;2023-09-07T00:21:00;4.38;;;3.97;;
38113;SDS011;23926;53.222;6.354;2023-09-07T00:23:26;5.80;;;4.57;;
38113;SDS011;23926;53.222;6.354;2023-09-07T00:25:52;5.18;;;4.30;;
38113;SDS011;23926;53.222;6.354;2023-09-07T00:28:18;4.50;;;4.10;;
38113;SDS011;23926;53.222;6.354;2023-09-07T00:30:43;4.38;;;3.97;;
38113;SDS011;23926;53.222;6.354;2023-09-07T00:33:09;6.93;;;4.32;;
38113;SDS011;23926;53.222;6.354;2023-09-07T00:35:34;5.28;;;4.60;;
38113;SDS011;23926;53.222;6.354;2023-09-07T00:38:00;5.82;;;4.47;;
38113;SDS011;23926;53.222;6.354;2023-09-07T00:40:25;5.32;;;4.13;;
38113;SDS011;23926;53.222;6.354;2023-09-07T00:42:51;3.92;;;3.50;;
38113;SDS011;23926;53.222;6.354;2023-09-07T00:45:17;6.00;;;4.88;;
38113;SDS011;23926;53.222;6.354;2023-09-07T00:47:42;5.85;;;3.88;;
38113;SDS011;23926;53.222;6.354;2023-09-07T00:50:08;6.72;;;5.15;;
38113;SDS011;23926;53.222;6.354;2023-09-07T00:52:34;7.45;;;4.47;;
38113;SDS011;23926;53.222;6.354;2023-09-07T00:55:04;4.28;;;3.53;;
38113;SDS011;23926;53.222;6.354;2023-09-07T00:57:29;6.00;;;4.57;;
38113;SDS011;23926;53.222;6.354;2023-09-07T00:59:55;4.85;;;4.07;;
38113;SDS011;23926;53.222;6.354;2023-09-07T01:02:20;4.22;;;3.92;;
38113;SDS011;23926;53.222;6.354;2023-09-07T01:04:46;4.97;;;4.47;;
38113;SDS011;23926;53.222;6.354;2023-09-07T01:09:43;7.22;;;4.30;;
38113;SDS011;23926;53.222;6.354;2023-09-07T01:12:15;13.48;;;4.20;;
38113;SDS011;23926;53.222;6.354;2023-09-07T01:14:40;4.95;;;4.45;;
38113;SDS011;23926;53.222;6.354;2023-09-07T01:17:06;5.18;;;4.60;;
38113;SDS011;23926;53.222;6.354;2023-09-07T01:19:32;4.88;;;4.43;;
38113;SDS011;23926;53.222;6.354;2023-09-07T01:21:58;5.63;;;5.07;;
38113;SDS011;23926;53.222;6.354;2023-09-07T01:24:24;5.45;;;4.93;;
38113;SDS011;23926;53.222;6.354;2023-09-07T01:26:51;6.22;;;4.70;;
38113;SDS011;23926;53.222;6.354;2023-09-07T01:29:17;4.70;;;4.25;;
38113;SDS011;23926;53.222;6.354;2023-09-07T01:31:43;4.28;;;3.70;;
38113;SDS011;23926;53.222;6.354;2023-09-07T01:34:08;4.07;;;3.67;;
38113;SDS011;23926;53.222;6.354;2023-09-07T01:36:34;5.22;;;4.15;;
38113;SDS011;23926;53.222;6.354;2023-09-07T01:42:21;4.68;;;4.28;;
38113;SDS011;23926;53.222;6.354;2023-09-07T01:44:46;3.80;;;3.50;;
38113;SDS011;23926;53.222;6.354;2023-09-07T01:47:12;4.07;;;3.75;;
38113;SDS011;23926;53.222;6.354;2023-09-07T01:49:38;4.30;;;3.28;;
38113;SDS011;23926;53.222;6.354;2023-09-07T01:52:03;6.80;;;4.20;;
38113;SDS011;23926;53.222;6.354;2023-09-07T01:54:29;4.45;;;3.90;;
38113;SDS011;23926;53.222;6.354;2023-09-07T01:56:54;4.72;;;4.32;;
38113;SDS011;23926;53.222;6.354;2023-09-07T01:59:20;7.18;;;4.85;;
38113;SDS011;23926;53.222;6.354;2023-09-07T02:01:45;4.68;;;3.88;;
38113;SDS011;23926;53.222;6.354;2023-09-07T02:04:10;4.47;;;4.07;;
38113;SDS011;23926;53.222;6.354;2023-09-07T02:06:36;4.68;;;4.28;;
38113;SDS011;23926;53.222;6.354;2023-09-07T02:09:01;7.05;;;4.50;;
38113;SDS011;23926;53.222;6.354;2023-09-07T02:11:29;6.82;;;4.82;;
38113;SDS011;23926;53.222;6.354;2023-09-07T02:13:54;9.18;;;4.25;;
38113;SDS011;23926;53.222;6.354;2023-09-07T02:16:20;14.93;;;5.18;;
38113;SDS011;23926;53.222;6.354;2023-09-07T02:18:48;5.45;;;4.38;;
38113;SDS011;23926;53.222;6.354;2023-09-07T02:21:15;4.40;;;4.10;;
38113;SDS011;23926;53.222;6.354;2023-09-07T02:23:40;6.93;;;4.43;;
38113;SDS011;23926;53.222;6.354;2023-09-07T02:26:06;6.15;;;5.32;;
38113;SDS011;23926;53.222;6.354;2023-09-07T02:28:31;4.75;;;4.13;;
38113;SDS011;23926;53.222;6.354;2023-09-07T02:31:03;5.07;;;4.57;;
38113;SDS011;23926;53.222;6.354;2023-09-07T02:33:29;5.50;;;4.18;;
38113;SDS011;23926;53.222;6.354;2023-09-07T02:35:55;7.20;;;4.75;;
38113;SDS011;23926;53.222;6.354;2023-09-07T02:38:20;4.63;;;4.20;;
38113;SDS011;23926;53.222;6.354;2023-09-07T02:40:46;7.90;;;4.75;;
38113;SDS011;23926;53.222;6.354;2023-09-07T02:43:12;6.20;;;4.68;;
38113;SDS011;23926;53.222;6.354;2023-09-07T02:45:37;6.22;;;4.72;;
38113;SDS011;23926;53.222;6.354;2023-09-07T02:48:04;5.22;;;4.72;;
38113;SDS011;23926;53.222;6.354;2023-09-07T02:50:31;6.22;;;4.70;;
38113;SDS011;23926;53.222;6.354;2023-09-07T02:52:57;4.90;;;4.40;;
38113;SDS011;23926;53.222;6.354;2023-09-07T02:55:23;6.15;;;5.55;;
38113;SDS011;23926;53.222;6.354;2023-09-07T02:57:48;5.55;;;4.78;;
38113;SDS011;23926;53.222;6.354;2023-09-07T03:00:14;5.93;;;4.45;;
38113;SDS011;23926;53.222;6.354;2023-09-07T03:02:42;4.93;;;4.45;;
38113;SDS011;23926;53.222;6.354;2023-09-07T03:05:08;5.72;;;4.43;;
38113;SDS011;23926;53.222;6.354;2023-09-07T03:07:34;5.10;;;4.70;;
38113;SDS011;23926;53.222;6.354;2023-09-07T03:09:59;5.80;;;5.28;;
38113;SDS011;23926;53.222;6.354;2023-09-07T03:12:25;5.32;;;4.60;;
38113;SDS011;23926;53.222;6.354;2023-09-07T03:14:51;6.78;;;4.88;;
38113;SDS011;23926;53.222;6.354;2023-09-07T03:17:17;5.97;;;4.57;;
38113;SDS011;23926;53.222;6.354;2023-09-07T03:19:43;6.13;;;5.55;;
38113;SDS011;23926;53.222;6.354;2023-09-07T03:22:08;8.75;;;6.00;;
38113;SDS011;23926;53.222;6.354;2023-09-07T03:24:35;6.25;;;5.65;;
38113;SDS011;23926;53.222;6.354;2023-09-07T03:27:00;19.23;;;6.50;;
38113;SDS011;23926;53.222;6.354;2023-09-07T03:29:26;6.38;;;5.13;;
38113;SDS011;23926;53.222;6.354;2023-09-07T03:31:51;5.47;;;4.97;;
38113;SDS011;23926;53.222;6.354;2023-09-07T03:34:17;6.97;;;6.10;;
38113;SDS011;23926;53.222;6.354;2023-09-07T03:36:42;6.47;;;5.85;;
38113;SDS011;23926;53.222;6.354;2023-09-07T03:39:07;6.35;;;5.72;;
38113;SDS011;23926;53.222;6.354;2023-09-07T03:41:33;5.50;;;4.40;;
38113;SDS011;23926;53.222;6.354;2023-09-07T03:43:59;5.70;;;5.20;;
38113;SDS011;23926;53.222;6.354;2023-09-07T03:46:26;9.50;;;5.68;;
38113;SDS011;23926;53.222;6.354;2023-09-07T03:48:51;6.57;;;5.40;;
38113;SDS011;23926;53.222;6.354;2023-09-07T03:51:17;6.20;;;5.47;;
38113;SDS011;23926;53.222;6.354;2023-09-07T03:53:42;8.55;;;6.30;;
38113;SDS011;23926;53.222;6.354;2023-09-07T03:56:08;9.38;;;5.88;;
38113;SDS011;23926;53.222;6.354;2023-09-07T03:58:33;6.13;;;5.50;;
38113;SDS011;23926;53.222;6.354;2023-09-07T04:00:59;9.73;;;6.20;;
38113;SDS011;23926;53.222;6.354;2023-09-07T04:03:25;6.95;;;5.22;;
38113;SDS011;23926;53.222;6.354;2023-09-07T04:05:51;7.68;;;5.57;;
38113;SDS011;23926;53.222;6.354;2023-09-07T04:08:16;8.07;;;6.20;;
38113;SDS011;23926;53.222;6.354;2023-09-07T04:10:42;7.97;;;5.72;;
38113;SDS011;23926;53.222;6.354;2023-09-07T04:13:07;5.93;;;5.43;;
38113;SDS011;23926;53.222;6.354;2023-09-07T04:15:54;6.18;;;5.65;;
38113;SDS011;23926;53.222;6.354;2023-09-07T04:18:28;5.90;;;4.90;;
38113;SDS011;23926;53.222;6.354;2023-09-07T04:21:03;9.93;;;6.10;;
38113;SDS011;23926;53.222;6.354;2023-09-07T04:23:29;9.95;;;6.05;;
38113;SDS011;23926;53.222;6.354;2023-09-07T04:26:03;8.65;;;6.22;;
38113;SDS011;23926;53.222;6.354;2023-09-07T04:28:32;6.38;;;4.97;;
38113;SDS011;23926;53.222;6.354;2023-09-07T04:30:58;7.22;;;5.57;;
38113;SDS011;23926;53.222;6.354;2023-09-07T04:33:23;6.32;;;4.90;;
38113;SDS011;23926;53.222;6.354;2023-09-07T04:35:49;4.57;;;4.28;;
38113;SDS011;23926;53.222;6.354;2023-09-07T04:38:14;7.28;;;5.60;;
38113;SDS011;23926;53.222;6.354;2023-09-07T04:40:39;16.45;;;6.13;;
38113;SDS011;23926;53.222;6.354;2023-09-07T04:43:05;6.40;;;5.80;;
38113;SDS011;23926;53.222;6.354;2023-09-07T04:45:30;14.27;;;5.15;;
38113;SDS011;23926;53.222;6.354;2023-09-07T04:47:56;6.05;;;5.45;;
38113;SDS011;23926;53.222;6.354;2023-09-07T04:50:21;8.30;;;5.53;;
38113;SDS011;23926;53.222;6.354;2023-09-07T04:52:47;6.53;;;5.38;;
38113;SDS011;23926;53.222;6.354;2023-09-07T04:55:12;5.75;;;5.20;;
38113;SDS011;23926;53.222;6.354;2023-09-07T04:57:38;6.10;;;5.60;;
38113;SDS011;23926;53.222;6.354;2023-09-07T05:00:04;8.23;;;6.15;;
38113;SDS011;23926;53.222;6.354;2023-09-07T05:02:34;5.18;;;4.70;;
38113;SDS011;23926;53.222;6.354;2023-09-07T05:05:05;17.90;;;5.57;;
38113;SDS011;23926;53.222;6.354;2023-09-07T05:07:31;8.38;;;5.90;;
38113;SDS011;23926;53.222;6.354;2023-09-07T05:09:57;6.38;;;5.78;;
38113;SDS011;23926;53.222;6.354;2023-09-07T05:12:22;7.00;;;5.53;;
38113;SDS011;23926;53.222;6.354;2023-09-07T05:14:48;5.57;;;4.32;;
38113;SDS011;23926;53.222;6.354;2023-09-07T05:17:13;4.72;;;4.32;;
38113;SDS011;23926;53.222;6.354;2023-09-07T05:19:38;5.32;;;4.82;;
38113;SDS011;23926;53.222;6.354;2023-09-07T05:22:04;7.43;;;4.93;;
38113;SDS011;23926;53.222;6.354;2023-09-07T05:24:29;6.25;;;5.65;;
38113;SDS011;23926;53.222;6.354;2023-09-07T05:26:55;8.23;;;5.65;;
38113;SDS011;23926;53.222;6.354;2023-09-07T05:29:20;7.72;;;6.50;;
38113;SDS011;23926;53.222;6.354;2023-09-07T05:31:46;9.30;;;6.40;;
38113;SDS011;23926;53.222;6.354;2023-09-07T05:34:12;9.40;;;6.18;;
38113;SDS011;23926;53.222;6.354;2023-09-07T05:36:37;6.03;;;5.53;;
38113;SDS011;23926;53.222;6.354;2023-09-07T05:39:03;6.32;;;5.78;;
38113;SDS011;23926;53.222;6.354;2023-09-07T05:41:29;7.43;;;5.25;;
38113;SDS011;23926;53.222;6.354;2023-09-07T05:43:54;7.55;;;4.90;;
38113;SDS011;23926;53.222;6.354;2023-09-07T05:46:20;7.30;;;4.50;;
38113;SDS011;23926;53.222;6.354;2023-09-07T05:48:45;5.53;;;5.00;;
38113;SDS011;23926;53.222;6.354;2023-09-07T05:51:11;4.70;;;4.18;;
38113;SDS011;23926;53.222;6.354;2023-09-07T05:53:36;5.40;;;4.95;;
38113;SDS011;23926;53.222;6.354;2023-09-07T05:56:02;4.90;;;4.50;;
38113;SDS011;23926;53.222;6.354;2023-09-07T05:58:27;6.03;;;5.43;;
38113;SDS011;23926;53.222;6.354;2023-09-07T06:00:53;7.70;;;5.80;;
38113;SDS011;23926;53.222;6.354;2023-09-07T06:03:19;8.00;;;5.43;;
38113;SDS011;23926;53.222;6.354;2023-09-07T06:05:44;9.25;;;5.95;;
38113;SDS011;23926;53.222;6.354;2023-09-07T06:08:09;5.22;;;4.72;;
38113;SDS011;23926;53.222;6.354;2023-09-07T06:10:35;5.85;;;5.28;;
38113;SDS011;23926;53.222;6.354;2023-09-07T06:13:01;11.77;;;6.30;;
38113;SDS011;23926;53.222;6.354;2023-09-07T06:15:27;4.50;;;4.10;;
38113;SDS011;23926;53.222;6.354;2023-09-07T06:17:52;11.40;;;5.03;;
38113;SDS011;23926;53.222;6.354;2023-09-07T06:20:19;5.45;;;4.95;;
38113;SDS011;23926;53.222;6.354;2023-09-07T06:22:44;5.82;;;4.88;;
38113;SDS011;23926;53.222;6.354;2023-09-07T06:25:10;5.45;;;4.95;;
38113;SDS011;23926;53.222;6.354;2023-09-07T06:27:36;5.05;;;4.65;;
38113;SDS011;23926;53.222;6.354;2023-09-07T06:30:01;6.07;;;3.45;;
38113;SDS011;23926;53.222;6.354;2023-09-07T06:32:27;6.65;;;5.88;;
38113;SDS011;23926;53.222;6.354;2023-09-07T06:34:53;8.23;;;6.05;;
38113;SDS011;23926;53.222;6.354;2023-09-07T06:37:18;4.32;;;3.92;;
38113;SDS011;23926;53.222;6.354;2023-09-07T06:39:44;5.15;;;4.65;;
38113;SDS011;23926;53.222;6.354;2023-09-07T06:42:09;4.82;;;4.43;;
38113;SDS011;23926;53.222;6.354;2023-09-07T06:44:40;10.43;;;7.15;;
38113;SDS011;23926;53.222;6.354;2023-09-07T06:47:05;5.20;;;4.57;;
38113;SDS011;23926;53.222;6.354;2023-09-07T06:49:32;7.00;;;6.30;;
38113;SDS011;23926;53.222;6.354;2023-09-07T06:51:57;5.45;;;4.95;;
38113;SDS011;23926;53.222;6.354;2023-09-07T06:54:23;7.88;;;4.85;;
38113;SDS011;23926;53.222;6.354;2023-09-07T06:56:48;6.00;;;5.43;;
38113;SDS011;23926;53.222;6.354;2023-09-07T06:59:14;5.72;;;5.13;;
38113;SDS011;23926;53.222;6.354;2023-09-07T07:01:39;7.65;;;5.53;;
38113;SDS011;23926;53.222;6.354;2023-09-07T07:04:05;7.18;;;5.43;;
38113;SDS011;23926;53.222;6.354;2023-09-07T07:06:31;6.43;;;4.57;;
38113;SDS011;23926;53.222;6.354;2023-09-07T07:08:57;6.45;;;5.85;;
38113;SDS011;23926;53.222;6.354;2023-09-07T07:11:22;5.15;;;4.57;;
38113;SDS011;23926;53.222;6.354;2023-09-07T07:13:47;5.28;;;4.82;;
38113;SDS011;23926;53.222;6.354;2023-09-07T07:16:13;8.65;;;5.35;;
38113;SDS011;23926;53.222;6.354;2023-09-07T07:18:39;5.72;;;4.45;;
38113;SDS011;23926;53.222;6.354;2023-09-07T07:21:04;5.38;;;4.22;;
38113;SDS011;23926;53.222;6.354;2023-09-07T07:23:30;7.80;;;5.55;;
38113;SDS011;23926;53.222;6.354;2023-09-07T07:25:56;5.25;;;3.80;;
38113;SDS011;23926;53.222;6.354;2023-09-07T07:28:22;6.88;;;4.07;;
38113;SDS011;23926;53.222;6.354;2023-09-07T07:30:47;4.88;;;4.07;;
38113;SDS011;23926;53.222;6.354;2023-09-07T07:33:13;4.40;;;3.75;;
38113;SDS011;23926;53.222;6.354;2023-09-07T07:35:39;4.53;;;4.05;;
38113;SDS011;23926;53.222;6.354;2023-09-07T07:38:04;5.10;;;3.58;;
38113;SDS011;23926;53.222;6.354;2023-09-07T07:40:32;5.15;;;4.20;;
38113;SDS011;23926;53.222;6.354;2023-09-07T07:42:58;7.25;;;3.97;;
38113;SDS011;23926;53.222;6.354;2023-09-07T07:45:23;4.28;;;3.92;;
38113;SDS011;23926;53.222;6.354;2023-09-07T07:47:49;4.60;;;4.20;;
38113;SDS011;23926;53.222;6.354;2023-09-07T07:50:15;5.35;;;4.07;;
38113;SDS011;23926;53.222;6.354;2023-09-07T07:52:41;3.88;;;3.55;;
38113;SDS011;23926;53.222;6.354;2023-09-07T07:55:07;7.13;;;3.08;;
38113;SDS011;23926;53.222;6.354;2023-09-07T07:57:33;3.90;;;2.70;;
38113;SDS011;23926;53.222;6.354;2023-09-07T07:59:58;4.30;;;2.88;;
38113;SDS011;23926;53.222;6.354;2023-09-07T08:02:24;4.10;;;3.55;;
38113;SDS011;23926;53.222;6.354;2023-09-07T08:04:49;3.80;;;3.42;;
38113;SDS011;23926;53.222;6.354;2023-09-07T08:07:15;3.85;;;3.55;;
38113;SDS011;23926;53.222;6.354;2023-09-07T08:09:41;4.75;;;3.47;;
38113;SDS011;23926;53.222;6.354;2023-09-07T08:12:07;4.68;;;3.92;;
38113;SDS011;23926;53.222;6.354;2023-09-07T08:14:32;4.20;;;3.47;;
38113;SDS011;23926;53.222;6.354;2023-09-07T08:16:58;5.75;;;4.38;;
38113;SDS011;23926;53.222;6.354;2023-09-07T08:19:24;7.93;;;3.65;;
38113;SDS011;23926;53.222;6.354;2023-09-07T08:21:49;3.88;;;3.47;;
38113;SDS011;23926;53.222;6.354;2023-09-07T08:24:18;3.63;;;3.33;;
38113;SDS011;23926;53.222;6.354;2023-09-07T08:26:43;8.52;;;4.60;;
38113;SDS011;23926;53.222;6.354;2023-09-07T08:29:09;3.20;;;3.00;;
38113;SDS011;23926;53.222;6.354;2023-09-07T08:31:36;4.30;;;3.38;;
38113;SDS011;23926;53.222;6.354;2023-09-07T08:34:04;7.18;;;3.80;;
38113;SDS011;23926;53.222;6.354;2023-09-07T08:36:30;6.00;;;3.95;;
38113;SDS011;23926;53.222;6.354;2023-09-07T08:39:02;5.88;;;4.82;;
38113;SDS011;23926;53.222;6.354;2023-09-07T08:41:35;11.10;;;4.53;;
38113;SDS011;23926;53.222;6.354;2023-09-07T08:44:23;5.18;;;4.32;;
38113;SDS011;23926;53.222;6.354;2023-09-07T08:46:49;4.05;;;3.65;;
38113;SDS011;23926;53.222;6.354;2023-09-07T08:49:16;6.70;;;4.38;;
38113;SDS011;23926;53.222;6.354;2023-09-07T08:51:46;4.00;;;3.33;;
38113;SDS011;23926;53.222;6.354;2023-09-07T08:54:12;6.57;;;4.47;;
38113;SDS011;23926;53.222;6.354;2023-09-07T08:56:38;4.25;;;3.85;;
38113;SDS011;23926;53.222;6.354;2023-09-07T08:59:03;4.05;;;3.75;;
38113;SDS011;23926;53.222;6.354;2023-09-07T09:01:29;6.43;;;3.35;;
38113;SDS011;23926;53.222;6.354;2023-09-07T09:03:58;3.97;;;3.38;;
38113;SDS011;23926;53.222;6.354;2023-09-07T09:06:24;4.45;;;3.50;;
38113;SDS011;23926;53.222;6.354;2023-09-07T09:08:53;4.25;;;3.47;;
38113;SDS011;23926;53.222;6.354;2023-09-07T09:11:21;7.57;;;3.50;;
38113;SDS011;23926;53.222;6.354;2023-09-07T09:13:48;5.28;;;3.80;;
38113;SDS011;23926;53.222;6.354;2023-09-07T09:16:15;4.93;;;4.00;;
38113;SDS011;23926;53.222;6.354;2023-09-07T09:18:51;6.63;;;4.70;;
38113;SDS011;23926;53.222;6.354;2023-09-07T09:21:21;5.65;;;3.83;;
38113;SDS011;23926;53.222;6.354;2023-09-07T09:23:49;3.78;;;3.47;;
38113;SDS011;23926;53.222;6.354;2023-09-07T09:26:15;4.25;;;2.97;;
38113;SDS011;23926;53.222;6.354;2023-09-07T09:28:41;3.85;;;3.50;;
38113;SDS011;23926;53.222;6.354;2023-09-07T09:31:10;3.92;;;3.35;;
38113;SDS011;23926;53.222;6.354;2023-09-07T09:33:37;3.30;;;3.00;;
38113;SDS011;23926;53.222;6.354;2023-09-07T09:36:04;4.05;;;3.65;;
38113;SDS011;23926;53.222;6.354;2023-09-07T09:38:31;3.13;;;2.92;;
38113;SDS011;23926;53.222;6.354;2023-09-07T09:40:57;3.45;;;3.13;;
38113;SDS011;23926;53.222;6.354;2023-09-07T09:43:23;4.22;;;3.80;;
38113;SDS011;23926;53.222;6.354;2023-09-07T09:45:50;3.95;;;3.58;;
38113;SDS011;23926;53.222;6.354;2023-09-07T09:48:17;3.08;;;2.88;;
38113;SDS011;23926;53.222;6.354;2023-09-07T09:50:44;4.65;;;3.03;;
38113;SDS011;23926;53.222;6.354;2023-09-07T09:53:12;5.47;;;4.13;;
38113;SDS011;23926;53.222;6.354;2023-09-07T09:55:41;3.78;;;3.47;;
38113;SDS011;23926;53.222;6.354;2023-09-07T09:58:06;4.32;;;3.90;;
38113;SDS011;23926;53.222;6.354;2023-09-07T10:00:32;3.95;;;3.38;;
38113;SDS011;23926;53.222;6.354;2023-09-07T10:03:10;3.88;;;3.20;;
38113;SDS011;23926;53.222;6.354;2023-09-07T10:05:39;3.03;;;2.83;;
38113;SDS011;23926;53.222;6.354;2023-09-07T10:08:08;3.72;;;3.40;;
38113;SDS011;23926;53.222;6.354;2023-09-07T10:10:36;5.32;;;3.58;;
38113;SDS011;23926;53.222;6.354;2023-09-07T10:13:04;4.00;;;3.25;;
38113;SDS011;23926;53.222;6.354;2023-09-07T10:15:30;4.15;;;3.50;;
38113;SDS011;23926;53.222;6.354;2023-09-07T10:18:03;4.10;;;3.58;;
38113;SDS011;23926;53.222;6.354;2023-09-07T10:20:34;5.00;;;3.33;;
38113;SDS011;23926;53.222;6.354;2023-09-07T10:23:12;3.33;;;2.92;;
38113;SDS011;23926;53.222;6.354;2023-09-07T10:25:38;3.50;;;3.20;;
38113;SDS011;23926;53.222;6.354;2023-09-07T10:28:03;3.53;;;3.22;;
38113;SDS011;23926;53.222;6.354;2023-09-07T10:30:29;3.92;;;3.63;;
38113;SDS011;23926;53.222;6.354;2023-09-07T10:32:57;3.47;;;3.17;;
38113;SDS011;23926;53.222;6.354;2023-09-07T10:35:23;4.30;;;3.60;;
38113;SDS011;23926;53.222;6.354;2023-09-07T10:37:50;4.47;;;3.83;;
38113;SDS011;23926;53.222;6.354;2023-09-07T10:40:20;3.65;;;3.30;;
38113;SDS011;23926;53.222;6.354;2023-09-07T10:42:46;4.10;;;3.38;;
38113;SDS011;23926;53.222;6.354;2023-09-07T10:45:13;4.53;;;3.60;;
38113;SDS011;23926;53.222;6.354;2023-09-07T10:47:44;5.03;;;4.45;;
38113;SDS011;23926;53.222;6.354;2023-09-07T10:50:13;3.78;;;3.47;;
38113;SDS011;23926;53.222;6.354;2023-09-07T10:52:40;4.43;;;3.83;;
38113;SDS011;23926;53.222;6.354;2023-09-07T10:55:07;3.33;;;3.03;;
38113;SDS011;23926;53.222;6.354;2023-09-07T10:57:41;3.05;;;2.85;;
38113;SDS011;23926;53.222;6.354;2023-09-07T11:00:10;3.50;;;2.83;;
38113;SDS011;23926;53.222;6.354;2023-09-07T11:02:37;7.25;;;3.33;;
38113;SDS011;23926;53.222;6.354;2023-09-07T11:05:03;4.65;;;3.60;;
38113;SDS011;23926;53.222;6.354;2023-09-07T11:07:29;3.50;;;3.22;;
38113;SDS011;23926;53.222;6.354;2023-09-07T11:09:54;3.20;;;3.00;;
38113;SDS011;23926;53.222;6.354;2023-09-07T11:12:20;3.30;;;2.97;;
38113;SDS011;23926;53.222;6.354;2023-09-07T11:14:53;3.70;;;3.40;;
38113;SDS011;23926;53.222;6.354;2023-09-07T11:17:19;7.22;;;4.10;;
38113;SDS011;23926;53.222;6.354;2023-09-07T11:19:44;8.85;;;4.80;;
38113;SDS011;23926;53.222;6.354;2023-09-07T11:22:10;8.45;;;2.90;;
38113;SDS011;23926;53.222;6.354;2023-09-07T11:24:36;3.30;;;3.03;;
38113;SDS011;23926;53.222;6.354;2023-09-07T11:27:02;4.30;;;3.75;;
38113;SDS011;23926;53.222;6.354;2023-09-07T11:29:33;3.55;;;3.25;;
38113;SDS011;23926;53.222;6.354;2023-09-07T11:32:05;4.13;;;3.63;;
38113;SDS011;23926;53.222;6.354;2023-09-07T11:34:34;6.80;;;4.03;;
38113;SDS011;23926;53.222;6.354;2023-09-07T11:37:02;4.03;;;3.63;;
38113;SDS011;23926;53.222;6.354;2023-09-07T11:39:28;3.35;;;2.92;;
38113;SDS011;23926;53.222;6.354;2023-09-07T11:41:54;3.38;;;3.08;;
38113;SDS011;23926;53.222;6.354;2023-09-07T11:44:20;9.60;;;3.35;;
38113;SDS011;23926;53.222;6.354;2023-09-07T11:46:45;3.20;;;2.90;;
38113;SDS011;23926;53.222;6.354;2023-09-07T11:49:11;4.00;;;3.70;;
38113;SDS011;23926;53.222;6.354;2023-09-07T11:51:36;7.00;;;4.15;;
38113;SDS011;23926;53.222;6.354;2023-09-07T11:54:02;3.42;;;2.97;;
38113;SDS011;23926;53.222;6.354;2023-09-07T11:56:29;3.22;;;2.75;;
38113;SDS011;23926;53.222;6.354;2023-09-07T11:58:54;3.90;;;3.40;;
38113;SDS011;23926;53.222;6.354;2023-09-07T12:01:20;4.20;;;3.25;;
38113;SDS011;23926;53.222;6.354;2023-09-07T12:03:46;3.63;;;3.30;;
38113;SDS011;23926;53.222;6.354;2023-09-07T12:06:12;3.53;;;3.22;;
38113;SDS011;23926;53.222;6.354;2023-09-07T12:08:41;4.38;;;3.65;;
38113;SDS011;23926;53.222;6.354;2023-09-07T12:11:07;3.47;;;3.10;;
38113;SDS011;23926;53.222;6.354;2023-09-07T12:13:33;3.00;;;2.70;;
38113;SDS011;23926;53.222;6.354;2023-09-07T12:15:58;5.57;;;2.83;;
38113;SDS011;23926;53.222;6.354;2023-09-07T12:18:26;11.90;;;3.33;;
38113;SDS011;23926;53.222;6.354;2023-09-07T12:20:51;3.17;;;2.88;;
38113;SDS011;23926;53.222;6.354;2023-09-07T12:23:17;3.35;;;3.05;;
38113;SDS011;23926;53.222;6.354;2023-09-07T12:25:42;7.78;;;3.00;;
38113;SDS011;23926;53.222;6.354;2023-09-07T12:28:08;2.90;;;2.70;;
38113;SDS011;23926;53.222;6.354;2023-09-07T12:30:34;3.97;;;2.63;;
38113;SDS011;23926;53.222;6.354;2023-09-07T12:32:59;5.25;;;2.80;;
38113;SDS011;23926;53.222;6.354;2023-09-07T12:35:25;3.05;;;2.83;;
38113;SDS011;23926;53.222;6.354;2023-09-07T12:37:50;5.97;;;3.00;;
38113;SDS011;23926;53.222;6.354;2023-09-07T12:40:16;7.97;;;3.47;;
38113;SDS011;23926;53.222;6.354;2023-09-07T12:42:41;3.00;;;2.80;;
38113;SDS011;23926;53.222;6.354;2023-09-07T12:45:10;3.30;;;2.80;;
38113;SDS011;23926;53.222;6.354;2023-09-07T12:47:36;4.13;;;3.10;;
38113;SDS011;23926;53.222;6.354;2023-09-07T12:50:02;3.20;;;2.75;;
38113;SDS011;23926;53.222;6.354;2023-09-07T12:52:29;5.97;;;3.42;;
38113;SDS011;23926;53.222;6.354;2023-09-07T12:54:55;8.00;;;3.63;;
38113;SDS011;23926;53.222;6.354;2023-09-07T12:57:21;3.33;;;2.95;;
38113;SDS011;23926;53.222;6.354;2023-09-07T12:59:46;3.97;;;2.97;;
38113;SDS011;23926;53.222;6.354;2023-09-07T13:02:11;4.63;;;3.88;;
38113;SDS011;23926;53.222;6.354;2023-09-07T13:04:37;5.40;;;3.42;;
38113;SDS011;23926;53.222;6.354;2023-09-07T13:07:02;3.25;;;2.95;;
38113;SDS011;23926;53.222;6.354;2023-09-07T13:09:28;2.70;;;2.50;;
38113;SDS011;23926;53.222;6.354;2023-09-07T13:11:53;3.28;;;2.97;;
38113;SDS011;23926;53.222;6.354;2023-09-07T13:14:19;2.75;;;2.55;;
38113;SDS011;23926;53.222;6.354;2023-09-07T13:16:44;2.85;;;2.60;;
38113;SDS011;23926;53.222;6.354;2023-09-07T13:19:10;2.92;;;2.72;;
38113;SDS011;23926;53.222;6.354;2023-09-07T13:21:36;3.22;;;2.92;;
38113;SDS011;23926;53.222;6.354;2023-09-07T13:24:02;4.22;;;3.05;;
38113;SDS011;23926;53.222;6.354;2023-09-07T13:26:28;4.20;;;3.40;;
38113;SDS011;23926;53.222;6.354;2023-09-07T13:28:53;3.25;;;2.80;;
38113;SDS011;23926;53.222;6.354;2023-09-07T13:31:19;3.15;;;2.85;;
38113;SDS011;23926;53.222;6.354;2023-09-07T13:33:44;5.40;;;2.60;;
38113;SDS011;23926;53.222;6.354;2023-09-07T13:36:09;3.72;;;2.58;;
38113;SDS011;23926;53.222;6.354;2023-09-07T13:38:36;4.90;;;3.22;;
38113;SDS011;23926;53.222;6.354;2023-09-07T13:41:01;7.68;;;3.50;;
38113;SDS011;23926;53.222;6.354;2023-09-07T13:43:27;2.95;;;2.75;;
38113;SDS011;23926;53.222;6.354;2023-09-07T13:45:52;4.15;;;3.33;;
38113;SDS011;23926;53.222;6.354;2023-09-07T13:48:18;3.40;;;2.72;;
38113;SDS011;23926;53.222;6.354;2023-09-07T13:50:43;2.85;;;2.63;;
38113;SDS011;23926;53.222;6.354;2023-09-07T13:53:09;4.55;;;3.08;;
38113;SDS011;23926;53.222;6.354;2023-09-07T13:55:34;5.90;;;3.00;;
38113;SDS011;23926;53.222;6.354;2023-09-07T13:58:00;5.57;;;3.65;;
38113;SDS011;23926;53.222;6.354;2023-09-07T14:00:26;3.58;;;3.03;;
38113;SDS011;23926;53.222;6.354;2023-09-07T14:02:51;2.67;;;2.47;;
38113;SDS011;23926;53.222;6.354;2023-09-07T14:05:17;5.40;;;3.45;;
38113;SDS011;23926;53.222;6.354;2023-09-07T14:07:43;4.75;;;3.17;;
38113;SDS011;23926;53.222;6.354;2023-09-07T14:10:09;2.92;;;2.50;;
38113;SDS011;23926;53.222;6.354;2023-09-07T14:12:35;3.42;;;3.05;;
38113;SDS011;23926;53.222;6.354;2023-09-07T14:15:00;3.65;;;3.35;;
38113;SDS011;23926;53.222;6.354;2023-09-07T14:17:26;3.17;;;2.95;;
38113;SDS011;23926;53.222;6.354;2023-09-07T14:19:51;3.08;;;2.88;;
38113;SDS011;23926;53.222;6.354;2023-09-07T14:22:17;3.30;;;3.00;;
38113;SDS011;23926;53.222;6.354;2023-09-07T14:24:42;8.02;;;3.45;;
38113;SDS011;23926;53.222;6.354;2023-09-07T14:27:07;6.63;;;3.20;;
38113;SDS011;23926;53.222;6.354;2023-09-07T14:29:34;3.28;;;2.95;;
38113;SDS011;23926;53.222;6.354;2023-09-07T14:32:00;3.17;;;2.97;;
38113;SDS011;23926;53.222;6.354;2023-09-07T14:34:26;3.00;;;2.70;;
38113;SDS011;23926;53.222;6.354;2023-09-07T14:36:51;5.50;;;4.05;;
38113;SDS011;23926;53.222;6.354;2023-09-07T14:39:17;3.35;;;3.00;;
38113;SDS011;23926;53.222;6.354;2023-09-07T14:41:48;5.88;;;3.50;;
38113;SDS011;23926;53.222;6.354;2023-09-07T14:44:14;5.32;;;3.42;;
38113;SDS011;23926;53.222;6.354;2023-09-07T14:46:39;3.45;;;2.90;;
38113;SDS011;23926;53.222;6.354;2023-09-07T14:49:05;6.38;;;2.83;;